createdAt,value
2022-09-13T00:02:19.664Z,6.83
2022-09-13T00:04:46.621Z,5.43
2022-09-13T00:07:13.581Z,6.33
2022-09-13T00:09:40.630Z,5.80
2022-09-13T00:12:07.679Z,5.80
2022-09-13T00:14:34.613Z,5.63
2022-09-13T00:17:01.623Z,6.13
2022-09-13T00:19:28.580Z,5.07
2022-09-13T00:21:55.505Z,6.67
2022-09-13T00:24:22.385Z,6.30
2022-09-13T00:26:49.312Z,5.87
2022-09-13T00:29:16.348Z,5.80
2022-09-13T00:31:43.373Z,5.70
2022-09-13T00:34:10.256Z,5.73
2022-09-13T00:36:37.304Z,5.10
2022-09-13T00:39:04.203Z,5.30
2022-09-13T00:41:31.239Z,5.17
2022-09-13T00:44:01.138Z,5.60
2022-09-13T00:46:45.969Z,5.90
2022-09-13T00:49:37.065Z,5.40
2022-09-13T00:52:09.835Z,5.47
2022-09-13T00:54:52.548Z,5.80
2022-09-13T00:57:21.969Z,5.77
2022-09-13T01:00:12.143Z,6.10
2022-09-13T01:02:43.501Z,5.63
2022-09-13T01:05:11.950Z,5.87
2022-09-13T01:07:39.515Z,5.80
2022-09-13T01:10:07.794Z,6.30
2022-09-13T01:13:02.815Z,5.67
2022-09-13T01:15:29.754Z,5.67
2022-09-13T01:17:57.027Z,5.70
2022-09-13T01:20:54.508Z,6.10
2022-09-13T01:23:47.803Z,5.50
2022-09-13T01:26:20.404Z,5.80
2022-09-13T01:29:22.352Z,5.40
2022-09-13T01:32:07.561Z,5.07
2022-09-13T01:35:14.593Z,5.80
2022-09-13T01:37:58.072Z,6.03
2022-09-13T01:40:39.119Z,5.37
2022-09-13T01:43:40.021Z,5.70
2022-09-13T01:46:32.295Z,6.23
2022-09-13T01:49:12.989Z,6.40
2022-09-13T01:51:58.499Z,6.17
2022-09-13T01:54:39.865Z,7.30
2022-09-13T01:57:21.866Z,6.60
2022-09-13T01:59:54.140Z,7.50
2022-09-13T02:02:33.805Z,7.43
2022-09-13T02:05:07.960Z,8.10
2022-09-13T02:07:46.826Z,8.37
2022-09-13T02:10:27.713Z,7.90
2022-09-13T02:12:58.294Z,7.83
2022-09-13T02:15:53.323Z,6.53
2022-09-13T02:18:28.815Z,8.43
2022-09-13T02:21:03.864Z,8.13
2022-09-13T02:23:39.337Z,7.80
2022-09-13T02:26:08.060Z,8.03
2022-09-13T02:28:44.365Z,7.97
2022-09-13T02:31:13.194Z,7.77
2022-09-13T02:33:47.345Z,7.40
2022-09-13T02:36:26.009Z,7.87
2022-09-13T02:39:01.114Z,8.37
2022-09-13T02:42:12.326Z,8.90
2022-09-13T02:44:49.714Z,8.60
2022-09-13T02:47:40.956Z,9.10
2022-09-13T02:50:30.131Z,9.23
2022-09-13T02:53:44.802Z,8.83
2022-09-13T02:56:34.368Z,9.33
2022-09-13T02:59:17.337Z,9.57
2022-09-13T03:02:04.698Z,10.10
2022-09-13T03:04:34.413Z,9.43
2022-09-13T03:07:04.481Z,8.80
2022-09-13T03:09:32.727Z,9.07
2022-09-13T03:13:01.322Z,9.43
2022-09-13T03:15:46.358Z,9.40
2022-09-13T03:18:32.076Z,9.80
2022-09-13T03:21:43.293Z,10.37
2022-09-13T03:24:58.823Z,11.10
2022-09-13T03:28:21.319Z,10.70
2022-09-13T03:31:01.221Z,10.00
2022-09-13T03:34:01.758Z,9.07
2022-09-13T03:36:44.705Z,11.03
2022-09-13T03:39:50.582Z,10.70
2022-09-13T03:42:48.540Z,11.27
2022-09-13T03:45:19.811Z,10.23
2022-09-13T03:47:48.846Z,10.00
2022-09-13T03:50:21.663Z,10.63
2022-09-13T03:53:01.860Z,9.80
2022-09-13T03:55:31.774Z,10.70
2022-09-13T03:57:58.683Z,11.30
2022-09-13T04:00:25.808Z,11.10
2022-09-13T04:02:52.817Z,10.80
2022-09-13T04:05:19.743Z,11.07
2022-09-13T04:07:46.690Z,10.90
2022-09-13T04:10:14.264Z,11.20
2022-09-13T04:12:41.475Z,10.83
2022-09-13T04:15:09.321Z,11.97
2022-09-13T04:17:36.363Z,11.83
2022-09-13T04:20:05.471Z,11.93
2022-09-13T04:22:33.558Z,12.07
2022-09-13T04:25:02.561Z,12.00
2022-09-13T04:27:29.864Z,11.50
2022-09-13T04:29:56.805Z,11.80
2022-09-13T04:32:23.772Z,11.80
2022-09-13T04:34:50.683Z,11.87
2022-09-13T04:37:17.829Z,11.37
2022-09-13T04:39:44.781Z,11.47
2022-09-13T04:42:11.859Z,12.33
2022-09-13T04:44:39.060Z,12.43
2022-09-13T04:47:08.126Z,12.37
2022-09-13T04:49:35.139Z,12.10
2022-09-13T04:52:02.340Z,10.87
2022-09-13T04:54:29.247Z,10.50
2022-09-13T04:56:56.172Z,11.60
2022-09-13T04:59:23.424Z,10.97
2022-09-13T05:01:50.356Z,12.53
2022-09-13T05:04:17.401Z,11.70
2022-09-13T05:06:44.311Z,12.23
2022-09-13T05:09:14.614Z,11.50
2022-09-13T05:11:42.300Z,12.50
2022-09-13T05:14:12.690Z,11.97
2022-09-13T05:16:39.907Z,13.40
2022-09-13T05:19:06.842Z,11.63
2022-09-13T05:21:33.765Z,13.30
2022-09-13T05:24:00.947Z,11.80
2022-09-13T05:26:31.349Z,11.90
2022-09-13T05:29:02.344Z,12.30
2022-09-13T05:31:36.954Z,12.27
2022-09-13T05:34:10.743Z,12.97
2022-09-13T05:36:38.312Z,13.40
2022-09-13T05:39:28.995Z,14.07
2022-09-13T05:41:53.527Z,13.87
2022-09-13T05:44:20.568Z,12.87
2022-09-13T05:46:48.653Z,14.17
2022-09-13T05:49:15.783Z,13.80
2022-09-13T05:51:43.542Z,13.73
2022-09-13T05:54:12.838Z,13.93
2022-09-13T05:56:40.268Z,14.50
2022-09-13T05:59:08.908Z,14.77
2022-09-13T06:01:36.689Z,15.07
2022-09-13T06:04:03.697Z,15.07
2022-09-13T06:06:30.604Z,14.80
2022-09-13T06:08:58.138Z,14.60
2022-09-13T06:11:26.731Z,14.50
2022-09-13T06:13:54.146Z,14.00
2022-09-13T06:16:21.790Z,13.33
2022-09-13T06:18:49.963Z,14.00
2022-09-13T06:21:22.199Z,13.50
2022-09-13T06:23:54.051Z,13.13
2022-09-13T06:26:24.951Z,12.70
2022-09-13T06:28:55.045Z,14.40
2022-09-13T06:31:25.191Z,14.50
2022-09-13T06:33:58.756Z,14.50
2022-09-13T06:36:26.489Z,15.10
2022-09-13T06:38:53.406Z,15.50
2022-09-13T06:41:23.773Z,16.43
2022-09-13T06:43:58.805Z,16.73
2022-09-13T06:46:28.871Z,16.10
2022-09-13T06:48:59.353Z,16.40
2022-09-13T06:51:27.319Z,15.37
2022-09-13T06:53:56.691Z,15.33
2022-09-13T06:56:30.802Z,14.73
2022-09-13T06:59:07.442Z,15.70
2022-09-13T07:01:40.700Z,14.27
2022-09-13T07:04:11.045Z,13.60
2022-09-13T07:06:47.662Z,15.23
2022-09-13T07:09:18.922Z,14.10
2022-09-13T07:11:47.243Z,16.53
2022-09-13T07:14:17.366Z,15.57
2022-09-13T07:16:46.091Z,15.30
2022-09-13T07:19:16.474Z,15.30
2022-09-13T07:21:44.425Z,15.13
2022-09-13T07:24:12.301Z,15.77
2022-09-13T07:26:39.397Z,16.00
2022-09-13T07:29:09.292Z,15.53
2022-09-13T07:31:39.854Z,16.73
2022-09-13T07:34:12.994Z,16.07
2022-09-13T07:36:39.967Z,15.13
2022-09-13T07:39:09.871Z,15.00
2022-09-13T07:41:39.711Z,15.80
2022-09-13T07:44:07.981Z,15.20
2022-09-13T07:46:39.904Z,15.40
2022-09-13T07:49:07.904Z,16.33
2022-09-13T07:51:39.585Z,16.93
2022-09-13T07:54:13.175Z,16.70
2022-09-13T07:56:41.929Z,15.87
2022-09-13T07:59:14.191Z,16.97
2022-09-13T08:01:47.559Z,17.10
2022-09-13T08:04:18.847Z,16.80
2022-09-13T08:06:46.898Z,14.53
2022-09-13T08:09:15.565Z,15.90
2022-09-13T08:11:49.006Z,13.60
2022-09-13T08:14:18.155Z,15.90
2022-09-13T08:16:45.217Z,16.17
2022-09-13T08:19:16.100Z,15.93
2022-09-13T08:21:44.326Z,16.43
2022-09-13T08:24:21.253Z,15.67
2022-09-13T08:26:48.939Z,16.50
2022-09-13T08:29:16.716Z,16.40
2022-09-13T08:31:44.229Z,16.00
2022-09-13T08:34:14.549Z,18.57
2022-09-13T08:36:42.114Z,16.63
2022-09-13T08:39:10.424Z,17.00
2022-09-13T08:41:40.304Z,17.07
2022-09-13T08:44:33.494Z,20.20
2022-09-13T08:47:22.094Z,19.33
2022-09-13T08:49:53.101Z,20.33
2022-09-13T08:53:05.805Z,19.30
2022-09-13T08:55:43.708Z,21.63
2022-09-13T08:58:56.741Z,22.30
2022-09-13T09:01:36.265Z,21.23
2022-09-13T09:04:15.092Z,22.50
2022-09-13T09:06:43.298Z,22.10
2022-09-13T09:09:21.997Z,22.07
2022-09-13T09:12:17.232Z,19.67
2022-09-13T09:14:57.261Z,23.23
2022-09-13T09:17:31.071Z,24.10
2022-09-13T09:20:18.943Z,22.50
2022-09-13T09:22:47.818Z,20.30
2022-09-13T09:25:14.747Z,19.27
2022-09-13T09:27:41.754Z,18.80
2022-09-13T09:30:16.656Z,18.70
2022-09-13T09:33:01.586Z,18.50
2022-09-13T09:36:08.938Z,20.53
2022-09-13T09:38:43.809Z,16.23
2022-09-13T09:41:29.058Z,18.50
2022-09-13T09:44:22.371Z,20.23
2022-09-13T09:47:25.940Z,18.80
2022-09-13T09:50:16.473Z,18.77
2022-09-13T09:53:09.846Z,15.60
2022-09-13T09:55:53.317Z,17.47
2022-09-13T09:58:36.440Z,16.10
2022-09-13T10:01:04.013Z,14.77
2022-09-13T10:03:34.026Z,14.60
2022-09-13T10:06:14.547Z,13.80
2022-09-13T10:08:44.237Z,14.27
2022-09-13T10:11:12.141Z,13.37
2022-09-13T10:13:59.440Z,12.50
2022-09-13T10:16:29.816Z,15.10
2022-09-13T10:19:26.693Z,17.57
2022-09-13T10:22:06.262Z,17.03
2022-09-13T10:24:33.331Z,16.07
2022-09-13T10:27:00.909Z,16.87
2022-09-13T10:29:29.171Z,16.50
2022-09-13T10:32:03.640Z,15.70
2022-09-13T10:34:34.601Z,13.70
2022-09-13T10:37:11.328Z,13.40
2022-09-13T10:40:00.360Z,13.10
2022-09-13T10:42:29.546Z,13.30
2022-09-13T10:45:05.010Z,11.50
2022-09-13T10:47:39.153Z,10.60
2022-09-13T10:50:31.091Z,11.27
2022-09-13T10:53:00.029Z,10.50
2022-09-13T10:55:43.952Z,9.47
2022-09-13T10:58:10.902Z,7.60
2022-09-13T11:01:16.948Z,8.20
2022-09-13T11:04:05.011Z,7.80
2022-09-13T11:06:53.932Z,6.27
2022-09-13T11:09:46.219Z,6.00
2022-09-13T11:12:28.416Z,5.37
2022-09-13T11:15:21.616Z,4.20
2022-09-13T11:17:58.428Z,4.10
2022-09-13T11:20:45.556Z,3.77
2022-09-13T11:23:51.276Z,3.10
2022-09-13T11:26:38.448Z,3.20
2022-09-13T11:29:29.992Z,2.70
2022-09-13T11:32:53.711Z,2.70
2022-09-13T11:36:00.939Z,3.27
2022-09-13T11:38:33.530Z,3.30
2022-09-13T11:41:22.864Z,3.57
2022-09-13T11:44:17.284Z,3.27
2022-09-13T11:47:11.550Z,3.20
2022-09-13T11:50:15.918Z,4.03
2022-09-13T11:53:22.979Z,3.40
2022-09-13T11:56:05.178Z,3.10
2022-09-13T11:59:01.146Z,2.33
2022-09-13T12:01:42.432Z,2.23
2022-09-13T12:04:27.761Z,2.13
2022-09-13T12:07:12.713Z,2.37
2022-09-13T12:09:55.214Z,1.90
2022-09-13T12:12:26.430Z,2.20
2022-09-13T12:15:02.210Z,1.67
2022-09-13T12:17:48.159Z,1.60
2022-09-13T12:20:33.444Z,2.10
2022-09-13T12:23:05.288Z,2.00
2022-09-13T12:25:46.481Z,1.70
2022-09-13T12:28:29.366Z,1.57
2022-09-13T12:31:02.929Z,1.50
2022-09-13T12:33:30.294Z,1.63
2022-09-13T12:36:12.385Z,1.43
2022-09-13T12:39:06.955Z,1.00
2022-09-13T12:42:02.661Z,1.30
2022-09-13T12:44:43.362Z,1.70
2022-09-13T12:48:06.645Z,1.27
2022-09-13T12:51:11.329Z,1.47
2022-09-13T12:53:57.382Z,1.43
2022-09-13T12:57:21.731Z,1.40
2022-09-13T13:00:11.565Z,1.03
2022-09-13T13:02:41.284Z,1.50
2022-09-13T13:05:54.257Z,1.20
2022-09-13T13:08:21.164Z,1.30
2022-09-13T13:11:26.211Z,1.13
2022-09-13T13:14:09.243Z,1.20
2022-09-13T13:16:48.201Z,1.40
2022-09-13T13:19:34.037Z,1.10
2022-09-13T13:22:44.857Z,2.03
2022-09-13T13:25:38.919Z,1.17
2022-09-13T13:28:43.145Z,1.30
2022-09-13T13:31:25.247Z,1.00
2022-09-13T13:34:13.921Z,1.40
2022-09-13T13:36:40.985Z,0.83
2022-09-13T13:39:33.767Z,0.93
2022-09-13T13:42:27.630Z,0.93
2022-09-13T13:44:54.384Z,0.90
2022-09-13T13:47:21.147Z,0.83
2022-09-13T13:50:07.214Z,0.87
2022-09-13T13:52:40.752Z,0.87
2022-09-13T13:55:45.751Z,0.90
2022-09-13T13:58:38.002Z,0.90
2022-09-13T14:01:06.455Z,0.70
2022-09-13T14:04:09.986Z,1.03
2022-09-13T14:07:06.122Z,1.50
2022-09-13T14:10:01.258Z,1.33
2022-09-13T14:12:54.302Z,1.03
2022-09-13T14:15:51.904Z,1.10
2022-09-13T14:18:39.377Z,1.10
2022-09-13T14:21:27.460Z,0.80
2022-09-13T14:24:24.634Z,0.80
2022-09-13T14:26:59.018Z,1.03
2022-09-13T14:29:26.575Z,1.10
2022-09-13T14:32:04.304Z,0.90
2022-09-13T14:34:36.300Z,1.00
2022-09-13T14:37:16.516Z,0.87
2022-09-13T14:40:18.839Z,0.93
2022-09-13T14:42:49.048Z,0.60
2022-09-13T14:45:31.658Z,1.20
2022-09-13T14:48:15.631Z,0.80
2022-09-13T14:50:55.295Z,0.60
2022-09-13T14:53:25.712Z,0.93
2022-09-13T14:56:13.192Z,0.60
2022-09-13T14:58:58.595Z,1.00
2022-09-13T15:01:33.591Z,0.77
2022-09-13T15:04:04.560Z,1.00
2022-09-13T15:06:39.046Z,0.90
2022-09-13T15:09:11.726Z,1.10
2022-09-13T15:11:52.549Z,1.00
2022-09-13T15:14:35.054Z,1.10
2022-09-13T15:17:10.183Z,1.00
2022-09-13T15:19:51.388Z,0.93
2022-09-13T15:22:24.735Z,0.90
2022-09-13T15:24:58.159Z,0.97
2022-09-13T15:27:31.514Z,0.83
2022-09-13T15:30:05.875Z,0.80
2022-09-13T15:32:44.163Z,1.43
2022-09-13T15:35:29.371Z,0.83
2022-09-13T15:38:19.743Z,1.10
2022-09-13T15:41:00.503Z,1.00
2022-09-13T15:43:28.266Z,0.80
2022-09-13T15:45:58.371Z,0.80
2022-09-13T15:48:33.045Z,0.63
2022-09-13T15:51:11.264Z,1.30
2022-09-13T15:53:44.593Z,0.87
2022-09-13T15:56:19.396Z,1.10
2022-09-13T15:58:47.205Z,1.00
2022-09-13T16:01:16.197Z,0.70
2022-09-13T16:03:43.295Z,1.10
2022-09-13T16:06:10.988Z,0.83
2022-09-13T16:08:39.069Z,0.90
2022-09-13T16:11:06.942Z,0.70
2022-09-13T16:13:34.653Z,1.20
2022-09-13T16:16:01.964Z,1.10
2022-09-13T16:18:28.962Z,0.70
2022-09-13T16:20:55.941Z,0.90
2022-09-13T16:23:23.058Z,0.90
2022-09-13T16:25:56.340Z,0.90
2022-09-13T16:28:25.920Z,0.80
2022-09-13T16:30:53.911Z,1.40
2022-09-13T16:33:21.193Z,0.90
2022-09-13T16:35:48.391Z,0.90
2022-09-13T16:38:15.735Z,0.77
2022-09-13T16:40:45.060Z,0.90
2022-09-13T16:43:14.687Z,1.20
2022-09-13T16:45:42.964Z,1.20
2022-09-13T16:48:09.895Z,1.10
2022-09-13T16:50:40.902Z,0.80
2022-09-13T16:53:09.319Z,1.17
2022-09-13T16:55:36.448Z,1.00
2022-09-13T16:58:03.573Z,1.30
2022-09-13T17:00:30.549Z,1.30
2022-09-13T17:02:57.660Z,1.10
2022-09-13T17:05:25.811Z,0.80
2022-09-13T17:07:53.179Z,0.83
2022-09-13T17:10:21.720Z,0.90
2022-09-13T17:12:49.214Z,1.40
2022-09-13T17:15:16.572Z,1.10
2022-09-13T17:17:44.020Z,1.10
2022-09-13T17:20:13.239Z,1.30
2022-09-13T17:22:40.529Z,1.00
2022-09-13T17:25:08.221Z,1.30
2022-09-13T17:27:35.993Z,1.00
2022-09-13T17:30:04.970Z,1.00
2022-09-13T17:32:31.971Z,1.00
2022-09-13T17:34:59.100Z,0.97
2022-09-13T17:37:26.050Z,1.00
2022-09-13T17:39:52.968Z,1.00
2022-09-13T17:42:23.109Z,1.00
2022-09-13T17:44:50.687Z,1.53
2022-09-13T17:47:17.564Z,1.27
2022-09-13T17:49:45.517Z,0.80
2022-09-13T17:52:12.540Z,1.10
2022-09-13T17:54:39.555Z,1.10
2022-09-13T17:57:06.708Z,1.30
2022-09-13T17:59:34.275Z,1.00
2022-09-13T18:02:01.408Z,1.00
2022-09-13T18:04:28.450Z,1.13
2022-09-13T18:06:55.964Z,1.50
2022-09-13T18:09:24.232Z,1.20
2022-09-13T18:11:51.562Z,1.60
2022-09-13T18:14:19.603Z,1.03
2022-09-13T18:16:49.206Z,1.57
2022-09-13T18:19:16.185Z,1.60
2022-09-13T18:21:43.536Z,1.47
2022-09-13T18:24:10.544Z,1.70
2022-09-13T18:26:38.003Z,1.87
2022-09-13T18:29:10.405Z,1.70
2022-09-13T18:31:38.326Z,1.80
2022-09-13T18:34:10.372Z,1.40
2022-09-13T18:36:37.921Z,1.50
2022-09-13T18:39:06.980Z,1.70
2022-09-13T18:41:36.909Z,1.40
2022-09-13T18:44:07.174Z,1.83
2022-09-13T18:46:35.529Z,1.57
2022-09-13T18:49:04.758Z,1.17
2022-09-13T18:51:44.386Z,2.23
2022-09-13T18:54:16.002Z,1.73
2022-09-13T18:56:46.210Z,1.60
2022-09-13T18:59:13.635Z,1.37
2022-09-13T19:01:42.846Z,1.47
2022-09-13T19:04:20.177Z,2.07
2022-09-13T19:06:53.422Z,1.70
2022-09-13T19:09:20.941Z,1.70
2022-09-13T19:11:51.840Z,1.53
2022-09-13T19:14:25.395Z,1.57
2022-09-13T19:16:55.750Z,1.43
2022-09-13T19:19:23.826Z,1.77
2022-09-13T19:21:50.853Z,2.40
2022-09-13T19:24:19.479Z,1.80
2022-09-13T19:26:50.736Z,1.87
2022-09-13T19:29:21.209Z,2.00
2022-09-13T19:31:49.451Z,2.00
2022-09-13T19:34:20.035Z,1.63
2022-09-13T19:36:49.502Z,2.90
2022-09-13T19:39:16.581Z,2.13
2022-09-13T19:41:43.903Z,1.70
2022-09-13T19:44:13.019Z,1.70
2022-09-13T19:46:42.088Z,1.40
2022-09-13T19:49:14.168Z,2.57
2022-09-13T19:51:45.465Z,2.40
2022-09-13T19:54:18.047Z,2.00
2022-09-13T19:56:45.092Z,2.50
2022-09-13T19:59:15.692Z,2.50
2022-09-13T20:01:45.021Z,2.40
2022-09-13T20:04:15.607Z,2.20
2022-09-13T20:06:46.989Z,2.60
2022-09-13T20:09:17.270Z,2.53
2022-09-13T20:11:45.513Z,2.10
2022-09-13T20:14:14.962Z,1.80
2022-09-13T20:16:42.922Z,3.07
2022-09-13T20:19:39.443Z,2.00
2022-09-13T20:22:07.424Z,1.90
2022-09-13T20:24:34.390Z,1.90
2022-09-13T20:27:01.289Z,2.17
2022-09-13T20:29:28.165Z,2.30
2022-09-13T20:31:55.650Z,1.83
2022-09-13T20:34:22.720Z,1.83
2022-09-13T20:36:50.058Z,2.10
2022-09-13T20:39:17.258Z,2.20
2022-09-13T20:41:45.015Z,2.13
2022-09-13T20:44:12.211Z,1.80
2022-09-13T20:46:40.510Z,1.90
2022-09-13T20:49:09.086Z,2.50
2022-09-13T20:51:37.180Z,3.03
2022-09-13T20:54:05.082Z,1.83
2022-09-13T20:56:34.234Z,2.13
2022-09-13T20:59:01.949Z,2.43
2022-09-13T21:01:31.546Z,2.00
2022-09-13T21:04:00.516Z,2.10
2022-09-13T21:06:30.429Z,2.30
2022-09-13T21:09:01.454Z,2.20
2022-09-13T21:11:35.336Z,2.00
2022-09-13T21:14:09.741Z,2.03
2022-09-13T21:16:40.660Z,2.70
2022-09-13T21:19:09.092Z,2.03
2022-09-13T21:21:39.337Z,2.20
2022-09-13T21:24:09.869Z,2.27
2022-09-13T21:26:42.688Z,2.23
2022-09-13T21:29:11.680Z,2.20
2022-09-13T21:31:39.636Z,2.37
2022-09-13T21:34:15.838Z,2.43
2022-09-13T21:36:44.345Z,2.00
2022-09-13T21:39:12.496Z,2.13
2022-09-13T21:41:39.970Z,2.33
2022-09-13T21:44:07.277Z,2.73
2022-09-13T21:46:36.759Z,2.07
2022-09-13T21:49:07.078Z,2.73
2022-09-13T21:51:40.929Z,2.63
2022-09-13T21:54:11.920Z,2.83
2022-09-13T21:56:42.253Z,3.10
2022-09-13T21:59:16.712Z,2.80
2022-09-13T22:01:47.270Z,2.70
2022-09-13T22:04:22.390Z,3.03
2022-09-13T22:06:53.787Z,3.20
2022-09-13T22:09:24.670Z,3.13
2022-09-13T22:11:51.905Z,2.20
2022-09-13T22:14:22.205Z,2.97
2022-09-13T22:16:52.502Z,3.10
2022-09-13T22:19:23.872Z,3.03
2022-09-13T22:21:55.568Z,2.83
2022-09-13T22:24:25.658Z,2.87
2022-09-13T22:26:56.623Z,2.97
2022-09-13T22:29:23.957Z,2.63
2022-09-13T22:31:52.266Z,3.00
2022-09-13T22:34:23.640Z,2.57
2022-09-13T22:36:50.642Z,2.57
2022-09-13T22:39:18.050Z,2.50
2022-09-13T22:41:45.450Z,2.50
2022-09-13T22:44:13.169Z,2.27
2022-09-13T22:46:43.809Z,2.57
2022-09-13T22:49:18.235Z,2.63
2022-09-13T22:51:46.963Z,2.10
2022-09-13T22:54:15.892Z,2.10
2022-09-13T22:56:43.591Z,2.10
2022-09-13T22:59:17.049Z,2.57
2022-09-13T23:01:44.637Z,3.17
2022-09-13T23:04:12.326Z,2.57
2022-09-13T23:06:39.815Z,2.50
2022-09-13T23:09:08.628Z,3.00
2022-09-13T23:11:39.428Z,3.20
2022-09-13T23:14:13.600Z,2.63
2022-09-13T23:16:46.946Z,2.80
2022-09-13T23:19:14.777Z,2.53
2022-09-13T23:21:43.082Z,2.80
2022-09-13T23:24:17.142Z,2.40
2022-09-13T23:26:45.224Z,2.87
2022-09-13T23:29:16.166Z,2.50
2022-09-13T23:31:43.965Z,2.73
2022-09-13T23:34:12.453Z,2.70
2022-09-13T23:36:41.467Z,2.40
2022-09-13T23:39:17.725Z,3.10
2022-09-13T23:41:47.201Z,2.77
2022-09-13T23:44:15.133Z,3.20
2022-09-13T23:46:42.679Z,3.33
2022-09-13T23:49:09.755Z,2.70
2022-09-13T23:51:36.918Z,3.00
2022-09-13T23:54:03.927Z,2.67
2022-09-13T23:56:32.113Z,3.30
2022-09-13T23:59:00.851Z,2.77
